Friday, April 20, 2018, 10:40 AM GMT
Back to Local

CYCX, Gagetown Can-Mil

Location: , , Canada Lat: 45.833
Local Time: 10:40 AM GMT (10:40 GMT) Lon: -66.433
Time Zone: GMT Elev: 167 ft

Show me the last for .
Show Coded

Time T Td Feel RH Dir Speed Gust Alt SLP Vis Weather Sky Remarks
2018-04-20 10:00 32 32 26 100 10° 7 - 29.72 29.73 6 -SN OVC005 None
2018-04-20 09:00 32 32 27 100 10° 5 - 29.69 29.70 3 -SN OVC003 None
2018-04-20 08:00 32 32 29 100 30° 3 - 29.69 29.70 1 -SN OVC003 None
2018-04-20 07:00 32 32 26 100 20° 6 - 29.68 29.68 2 -SN OVC003 None
2018-04-20 06:52 32 32 26 100 20° 7 - 29.68 29.68 5 -SN OVC005 None
2018-04-20 06:20 34 34 27 100 30° 8 - 29.68 29.68 10 -SN OVC005 None
2018-04-20 06:00 36 36 28 100 30° 10 - 29.67 29.68 10 -RA OVC010 None
2018-04-20 05:00 37 37 33 100 360° 6 - 29.66 29.66 15 -RA OVC015 None
2018-04-20 04:00 37 37 - 100 300° 2 - 29.66 29.66 15 -RA OVC020 None
2018-04-20 03:00 37 37 - 100 300° 2 - 29.66 29.67 15 -SHRA OVC025 None
2018-04-20 02:00 37 37 - 100 140° 2 - 29.68 29.68 15 -SHRA OVC030 None
2018-04-20 01:00 39 37 - 93 - Calm - 29.68 29.69 15 -SHRA OVC050 None
2018-04-20 00:00 41 37 - 86 - Calm - 29.67 29.68 15 OVC070 None
2018-04-19 23:00 41 37 39 86 250° 3 - 29.68 29.68 15 SCT040 OVC060 None
2018-04-19 22:00 43 37 39 81 190° 7 - 29.66 29.66 15 SCT060 BKN090 OVC220 None
2018-04-19 21:32 43 37 38 81 190° 8 - 29.67 29.67 15 BKN050 BKN090 None
2018-04-19 21:00 45 37 40 75 170° 9 - 29.67 29.67 15 -SHRA BKN050 OVC090 None
2018-04-19 20:45 45 37 40 75 170° 9 - 29.66 29.66 15 -SHRA BKN055 OVC090 None
2018-04-19 20:00 48 30 - 49 220° 2 - 29.65 29.66 15 SCT055 BKN090 OVC220 None
2018-04-19 19:00 48 32 - 53 190° 2 - 29.65 29.66 15 FEW055 OVC090 None
2018-04-19 18:00 48 34 47 57 150° 3 - 29.64 29.65 15 FEW045 OVC065 None
2018-04-19 17:00 48 34 46 57 250° 6 - 29.67 29.67 15 BKN045 BKN220 None
2018-04-19 16:00 46 34 42 61 250° 8 - 29.68 29.68 15 BKN035 None
2018-04-19 15:00 45 36 40 70 220° 8 - 29.67 29.68 15 OVC025 None
2018-04-19 14:50 45 34 40 65 230° 8 - 29.67 29.67 15 OVC025 None
2018-04-19 14:00 45 36 41 70 270° 6 - 29.65 29.66 15 BKN020 None
2018-04-19 13:22 45 37 41 75 270° 7 - 29.65 29.66 15 BKN018 BKN030 None
2018-04-19 13:00 43 36 39 75 250° 6 - 29.65 29.66 15 -SHRA BKN018 BKN055 None
2018-04-19 12:00 39 34 34 80 220° 8 - 29.65 29.66 15 -SHRA OVC022 None
2018-04-19 11:00 39 32 34 75 210° 7 - 29.62 29.63 15 -SHRA OVC040 None
2018-04-19 10:49 37 32 32 80 200° 7 - 29.62 29.62 15 -SHRA OVC040 None

Support USWX by starting your Amazon purchase here.